sensor_id;sensor_type;location;lat;lon;timestamp;P1;durP1;ratioP1;P2;durP2;ratioP2
24681;SDS011;12802;53.390;-2.328;2023-07-31T00:00:07;12.95;;;3.60;;
24681;SDS011;12802;53.390;-2.328;2023-07-31T00:02:37;6.95;;;3.15;;
24681;SDS011;12802;53.390;-2.328;2023-07-31T00:05:03;8.65;;;3.50;;
24681;SDS011;12802;53.390;-2.328;2023-07-31T00:07:30;8.10;;;3.20;;
24681;SDS011;12802;53.390;-2.328;2023-07-31T00:09:56;5.75;;;3.00;;
24681;SDS011;12802;53.390;-2.328;2023-07-31T00:12:22;8.20;;;3.47;;
24681;SDS011;12802;53.390;-2.328;2023-07-31T00:14:48;5.90;;;2.92;;
24681;SDS011;12802;53.390;-2.328;2023-07-31T00:17:14;7.07;;;2.45;;
24681;SDS011;12802;53.390;-2.328;2023-07-31T00:19:40;7.45;;;3.15;;
24681;SDS011;12802;53.390;-2.328;2023-07-31T00:22:06;5.25;;;2.40;;
24681;SDS011;12802;53.390;-2.328;2023-07-31T00:24:33;4.88;;;2.53;;
24681;SDS011;12802;53.390;-2.328;2023-07-31T00:26:59;4.43;;;2.65;;
24681;SDS011;12802;53.390;-2.328;2023-07-31T00:29:26;9.60;;;2.90;;
24681;SDS011;12802;53.390;-2.328;2023-07-31T00:31:52;5.85;;;2.33;;
24681;SDS011;12802;53.390;-2.328;2023-07-31T00:34:18;8.77;;;2.80;;
24681;SDS011;12802;53.390;-2.328;2023-07-31T00:36:44;5.82;;;2.45;;
24681;SDS011;12802;53.390;-2.328;2023-07-31T00:39:10;4.57;;;2.35;;
24681;SDS011;12802;53.390;-2.328;2023-07-31T00:41:36;6.03;;;2.28;;
24681;SDS011;12802;53.390;-2.328;2023-07-31T00:44:02;4.68;;;2.42;;
24681;SDS011;12802;53.390;-2.328;2023-07-31T00:46:29;6.88;;;2.60;;
24681;SDS011;12802;53.390;-2.328;2023-07-31T00:48:55;4.15;;;2.33;;
24681;SDS011;12802;53.390;-2.328;2023-07-31T00:51:21;4.60;;;2.08;;
24681;SDS011;12802;53.390;-2.328;2023-07-31T00:53:47;5.82;;;2.40;;
24681;SDS011;12802;53.390;-2.328;2023-07-31T00:56:13;3.63;;;2.05;;
24681;SDS011;12802;53.390;-2.328;2023-07-31T00:58:39;8.13;;;2.08;;
24681;SDS011;12802;53.390;-2.328;2023-07-31T01:01:07;8.50;;;2.10;;
24681;SDS011;12802;53.390;-2.328;2023-07-31T01:03:33;4.35;;;2.20;;
24681;SDS011;12802;53.390;-2.328;2023-07-31T01:06:22;3.53;;;1.95;;
24681;SDS011;12802;53.390;-2.328;2023-07-31T01:11:17;5.13;;;2.47;;
24681;SDS011;12802;53.390;-2.328;2023-07-31T01:13:45;7.10;;;2.25;;
24681;SDS011;12802;53.390;-2.328;2023-07-31T01:16:12;6.55;;;2.30;;
24681;SDS011;12802;53.390;-2.328;2023-07-31T01:18:38;10.13;;;2.45;;
24681;SDS011;12802;53.390;-2.328;2023-07-31T01:21:48;5.43;;;2.30;;
24681;SDS011;12802;53.390;-2.328;2023-07-31T01:26:35;7.65;;;2.17;;
24681;SDS011;12802;53.390;-2.328;2023-07-31T01:31:48;2.72;;;2.17;;
24681;SDS011;12802;53.390;-2.328;2023-07-31T01:34:15;5.60;;;2.00;;
24681;SDS011;12802;53.390;-2.328;2023-07-31T01:36:43;8.75;;;2.10;;
24681;SDS011;12802;53.390;-2.328;2023-07-31T01:39:09;7.32;;;2.10;;
24681;SDS011;12802;53.390;-2.328;2023-07-31T01:41:35;6.97;;;1.80;;
24681;SDS011;12802;53.390;-2.328;2023-07-31T01:44:01;4.20;;;2.20;;
24681;SDS011;12802;53.390;-2.328;2023-07-31T01:46:27;4.25;;;2.00;;
24681;SDS011;12802;53.390;-2.328;2023-07-31T01:48:55;4.35;;;2.28;;
24681;SDS011;12802;53.390;-2.328;2023-07-31T01:51:22;9.77;;;2.05;;
24681;SDS011;12802;53.390;-2.328;2023-07-31T01:53:49;4.38;;;2.42;;
24681;SDS011;12802;53.390;-2.328;2023-07-31T01:56:15;3.50;;;1.73;;
24681;SDS011;12802;53.390;-2.328;2023-07-31T01:58:41;6.60;;;1.70;;
24681;SDS011;12802;53.390;-2.328;2023-07-31T02:01:07;3.67;;;1.73;;
24681;SDS011;12802;53.390;-2.328;2023-07-31T02:03:33;4.53;;;1.38;;
24681;SDS011;12802;53.390;-2.328;2023-07-31T02:06:00;5.07;;;1.92;;
24681;SDS011;12802;53.390;-2.328;2023-07-31T02:08:26;3.67;;;1.42;;
24681;SDS011;12802;53.390;-2.328;2023-07-31T02:10:52;4.35;;;1.77;;
24681;SDS011;12802;53.390;-2.328;2023-07-31T02:13:18;7.57;;;1.98;;
24681;SDS011;12802;53.390;-2.328;2023-07-31T02:15:45;3.17;;;1.33;;
24681;SDS011;12802;53.390;-2.328;2023-07-31T02:18:10;6.82;;;1.60;;
24681;SDS011;12802;53.390;-2.328;2023-07-31T02:20:36;5.25;;;1.60;;
24681;SDS011;12802;53.390;-2.328;2023-07-31T02:23:02;4.70;;;1.40;;
24681;SDS011;12802;53.390;-2.328;2023-07-31T02:25:28;5.30;;;1.73;;
24681;SDS011;12802;53.390;-2.328;2023-07-31T02:27:54;3.58;;;1.58;;
24681;SDS011;12802;53.390;-2.328;2023-07-31T02:30:20;3.63;;;1.38;;
24681;SDS011;12802;53.390;-2.328;2023-07-31T02:32:47;2.55;;;1.48;;
24681;SDS011;12802;53.390;-2.328;2023-07-31T02:35:13;2.65;;;1.20;;
24681;SDS011;12802;53.390;-2.328;2023-07-31T02:37:41;3.67;;;1.60;;
24681;SDS011;12802;53.390;-2.328;2023-07-31T02:40:08;3.15;;;1.50;;
24681;SDS011;12802;53.390;-2.328;2023-07-31T02:42:35;5.57;;;1.35;;
24681;SDS011;12802;53.390;-2.328;2023-07-31T02:45:01;5.22;;;1.58;;
24681;SDS011;12802;53.390;-2.328;2023-07-31T02:47:27;4.50;;;1.77;;
24681;SDS011;12802;53.390;-2.328;2023-07-31T02:49:53;3.50;;;1.45;;
24681;SDS011;12802;53.390;-2.328;2023-07-31T02:52:21;4.15;;;1.27;;
24681;SDS011;12802;53.390;-2.328;2023-07-31T02:54:47;3.30;;;1.20;;
24681;SDS011;12802;53.390;-2.328;2023-07-31T02:57:13;2.38;;;1.25;;
24681;SDS011;12802;53.390;-2.328;2023-07-31T02:59:39;3.05;;;1.10;;
24681;SDS011;12802;53.390;-2.328;2023-07-31T03:02:05;3.85;;;1.30;;
24681;SDS011;12802;53.390;-2.328;2023-07-31T03:04:31;2.22;;;0.98;;
24681;SDS011;12802;53.390;-2.328;2023-07-31T03:06:57;4.50;;;1.23;;
24681;SDS011;12802;53.390;-2.328;2023-07-31T03:09:23;3.35;;;1.20;;
24681;SDS011;12802;53.390;-2.328;2023-07-31T03:11:50;3.22;;;1.00;;
24681;SDS011;12802;53.390;-2.328;2023-07-31T03:14:16;4.05;;;1.60;;
24681;SDS011;12802;53.390;-2.328;2023-07-31T03:16:42;3.88;;;1.48;;
24681;SDS011;12802;53.390;-2.328;2023-07-31T03:19:08;5.25;;;1.42;;
24681;SDS011;12802;53.390;-2.328;2023-07-31T03:21:34;3.33;;;1.15;;
24681;SDS011;12802;53.390;-2.328;2023-07-31T03:24:00;5.45;;;1.63;;
24681;SDS011;12802;53.390;-2.328;2023-07-31T03:26:27;1.90;;;1.08;;
24681;SDS011;12802;53.390;-2.328;2023-07-31T03:28:54;3.00;;;1.35;;
24681;SDS011;12802;53.390;-2.328;2023-07-31T03:31:21;6.43;;;1.42;;
24681;SDS011;12802;53.390;-2.328;2023-07-31T03:33:47;3.95;;;1.25;;
24681;SDS011;12802;53.390;-2.328;2023-07-31T03:36:13;3.13;;;1.50;;
24681;SDS011;12802;53.390;-2.328;2023-07-31T03:38:39;1.75;;;1.00;;
24681;SDS011;12802;53.390;-2.328;2023-07-31T03:41:06;4.07;;;1.38;;
24681;SDS011;12802;53.390;-2.328;2023-07-31T03:43:32;6.43;;;1.40;;
24681;SDS011;12802;53.390;-2.328;2023-07-31T03:45:59;2.53;;;1.20;;
24681;SDS011;12802;53.390;-2.328;2023-07-31T03:48:25;4.28;;;1.38;;
24681;SDS011;12802;53.390;-2.328;2023-07-31T03:50:51;8.13;;;1.27;;
24681;SDS011;12802;53.390;-2.328;2023-07-31T03:53:17;7.55;;;1.45;;
24681;SDS011;12802;53.390;-2.328;2023-07-31T03:55:43;6.65;;;1.60;;
24681;SDS011;12802;53.390;-2.328;2023-07-31T03:58:09;3.72;;;1.20;;
24681;SDS011;12802;53.390;-2.328;2023-07-31T04:00:35;7.47;;;1.38;;
24681;SDS011;12802;53.390;-2.328;2023-07-31T04:03:01;3.67;;;1.83;;
24681;SDS011;12802;53.390;-2.328;2023-07-31T04:05:26;4.43;;;1.50;;
24681;SDS011;12802;53.390;-2.328;2023-07-31T04:07:52;3.63;;;1.27;;
24681;SDS011;12802;53.390;-2.328;2023-07-31T04:10:18;8.40;;;1.80;;
24681;SDS011;12802;53.390;-2.328;2023-07-31T04:12:44;4.10;;;1.52;;
24681;SDS011;12802;53.390;-2.328;2023-07-31T04:15:09;5.75;;;1.70;;
24681;SDS011;12802;53.390;-2.328;2023-07-31T04:17:35;7.50;;;1.77;;
24681;SDS011;12802;53.390;-2.328;2023-07-31T04:20:01;5.65;;;1.88;;
24681;SDS011;12802;53.390;-2.328;2023-07-31T04:22:27;3.75;;;1.88;;
24681;SDS011;12802;53.390;-2.328;2023-07-31T04:24:53;3.17;;;1.50;;
24681;SDS011;12802;53.390;-2.328;2023-07-31T04:27:19;4.22;;;1.75;;
24681;SDS011;12802;53.390;-2.328;2023-07-31T04:29:46;5.60;;;1.88;;
24681;SDS011;12802;53.390;-2.328;2023-07-31T04:32:12;4.20;;;1.65;;
24681;SDS011;12802;53.390;-2.328;2023-07-31T04:34:40;5.70;;;2.10;;
24681;SDS011;12802;53.390;-2.328;2023-07-31T04:37:06;7.38;;;1.88;;
24681;SDS011;12802;53.390;-2.328;2023-07-31T04:39:33;6.32;;;1.95;;
24681;SDS011;12802;53.390;-2.328;2023-07-31T04:41:58;4.72;;;1.80;;
24681;SDS011;12802;53.390;-2.328;2023-07-31T04:44:24;4.70;;;1.58;;
24681;SDS011;12802;53.390;-2.328;2023-07-31T04:46:51;5.43;;;1.95;;
24681;SDS011;12802;53.390;-2.328;2023-07-31T04:49:16;6.07;;;1.92;;
24681;SDS011;12802;53.390;-2.328;2023-07-31T04:51:42;5.00;;;1.90;;
24681;SDS011;12802;53.390;-2.328;2023-07-31T04:54:08;6.63;;;2.17;;
24681;SDS011;12802;53.390;-2.328;2023-07-31T04:56:34;6.03;;;2.17;;
24681;SDS011;12802;53.390;-2.328;2023-07-31T04:59:00;8.82;;;1.98;;
24681;SDS011;12802;53.390;-2.328;2023-07-31T05:01:26;4.38;;;2.15;;
24681;SDS011;12802;53.390;-2.328;2023-07-31T05:03:52;4.03;;;2.10;;
24681;SDS011;12802;53.390;-2.328;2023-07-31T05:06:18;4.65;;;2.33;;
24681;SDS011;12802;53.390;-2.328;2023-07-31T05:08:45;4.03;;;1.80;;
24681;SDS011;12802;53.390;-2.328;2023-07-31T05:11:11;4.03;;;2.08;;
24681;SDS011;12802;53.390;-2.328;2023-07-31T05:13:37;4.53;;;2.40;;
24681;SDS011;12802;53.390;-2.328;2023-07-31T05:16:04;5.80;;;2.50;;
24681;SDS011;12802;53.390;-2.328;2023-07-31T05:18:30;6.95;;;2.63;;
24681;SDS011;12802;53.390;-2.328;2023-07-31T05:20:56;7.65;;;2.45;;
24681;SDS011;12802;53.390;-2.328;2023-07-31T05:23:22;4.60;;;2.38;;
24681;SDS011;12802;53.390;-2.328;2023-07-31T05:25:48;10.80;;;2.70;;
24681;SDS011;12802;53.390;-2.328;2023-07-31T05:28:14;6.60;;;2.35;;
24681;SDS011;12802;53.390;-2.328;2023-07-31T05:30:40;4.47;;;2.45;;
24681;SDS011;12802;53.390;-2.328;2023-07-31T05:33:06;8.65;;;2.45;;
24681;SDS011;12802;53.390;-2.328;2023-07-31T05:35:32;6.85;;;3.33;;
24681;SDS011;12802;53.390;-2.328;2023-07-31T05:37:58;6.93;;;3.30;;
24681;SDS011;12802;53.390;-2.328;2023-07-31T05:40:25;11.23;;;4.45;;
24681;SDS011;12802;53.390;-2.328;2023-07-31T05:42:51;6.35;;;3.38;;
24681;SDS011;12802;53.390;-2.328;2023-07-31T05:45:17;12.80;;;4.28;;
24681;SDS011;12802;53.390;-2.328;2023-07-31T05:47:43;13.20;;;4.80;;
24681;SDS011;12802;53.390;-2.328;2023-07-31T05:50:09;11.77;;;4.78;;
24681;SDS011;12802;53.390;-2.328;2023-07-31T05:52:35;12.70;;;4.80;;
24681;SDS011;12802;53.390;-2.328;2023-07-31T05:55:01;11.18;;;5.03;;
24681;SDS011;12802;53.390;-2.328;2023-07-31T05:57:28;14.15;;;5.43;;
24681;SDS011;12802;53.390;-2.328;2023-07-31T05:59:54;10.75;;;4.80;;
24681;SDS011;12802;53.390;-2.328;2023-07-31T06:02:20;9.18;;;4.40;;
24681;SDS011;12802;53.390;-2.328;2023-07-31T06:04:46;11.88;;;5.15;;
24681;SDS011;12802;53.390;-2.328;2023-07-31T06:07:12;10.48;;;4.45;;
24681;SDS011;12802;53.390;-2.328;2023-07-31T06:09:38;13.07;;;5.00;;
24681;SDS011;12802;53.390;-2.328;2023-07-31T06:12:04;11.90;;;5.60;;
24681;SDS011;12802;53.390;-2.328;2023-07-31T06:14:30;10.75;;;5.38;;
24681;SDS011;12802;53.390;-2.328;2023-07-31T06:16:56;14.30;;;5.85;;
24681;SDS011;12802;53.390;-2.328;2023-07-31T06:19:22;14.30;;;6.22;;
24681;SDS011;12802;53.390;-2.328;2023-07-31T06:21:49;15.48;;;6.40;;
24681;SDS011;12802;53.390;-2.328;2023-07-31T06:24:15;15.13;;;6.45;;
24681;SDS011;12802;53.390;-2.328;2023-07-31T06:26:44;17.85;;;7.25;;
24681;SDS011;12802;53.390;-2.328;2023-07-31T06:29:10;21.08;;;6.78;;
24681;SDS011;12802;53.390;-2.328;2023-07-31T06:31:36;15.73;;;6.53;;
24681;SDS011;12802;53.390;-2.328;2023-07-31T06:34:02;18.73;;;6.45;;
24681;SDS011;12802;53.390;-2.328;2023-07-31T06:36:28;19.73;;;6.20;;
24681;SDS011;12802;53.390;-2.328;2023-07-31T06:38:54;16.40;;;6.75;;
24681;SDS011;12802;53.390;-2.328;2023-07-31T06:41:20;14.50;;;6.28;;
24681;SDS011;12802;53.390;-2.328;2023-07-31T06:43:46;14.73;;;6.93;;
24681;SDS011;12802;53.390;-2.328;2023-07-31T06:46:12;18.33;;;6.65;;
24681;SDS011;12802;53.390;-2.328;2023-07-31T06:48:39;18.40;;;6.72;;
24681;SDS011;12802;53.390;-2.328;2023-07-31T06:51:05;15.57;;;6.70;;
24681;SDS011;12802;53.390;-2.328;2023-07-31T06:53:31;20.00;;;6.47;;
24681;SDS011;12802;53.390;-2.328;2023-07-31T06:55:57;19.27;;;7.00;;
24681;SDS011;12802;53.390;-2.328;2023-07-31T06:58:23;16.00;;;6.93;;
24681;SDS011;12802;53.390;-2.328;2023-07-31T07:00:49;18.73;;;7.20;;
24681;SDS011;12802;53.390;-2.328;2023-07-31T07:03:17;20.05;;;7.40;;
24681;SDS011;12802;53.390;-2.328;2023-07-31T07:05:43;18.80;;;7.55;;
24681;SDS011;12802;53.390;-2.328;2023-07-31T07:08:10;16.70;;;6.80;;
24681;SDS011;12802;53.390;-2.328;2023-07-31T07:10:36;22.48;;;7.18;;
24681;SDS011;12802;53.390;-2.328;2023-07-31T07:13:02;25.63;;;7.90;;
24681;SDS011;12802;53.390;-2.328;2023-07-31T07:15:28;26.50;;;8.00;;
24681;SDS011;12802;53.390;-2.328;2023-07-31T07:17:55;17.30;;;7.03;;
24681;SDS011;12802;53.390;-2.328;2023-07-31T07:20:21;17.02;;;7.32;;
24681;SDS011;12802;53.390;-2.328;2023-07-31T07:22:47;20.25;;;6.97;;
24681;SDS011;12802;53.390;-2.328;2023-07-31T07:25:13;21.20;;;6.93;;
24681;SDS011;12802;53.390;-2.328;2023-07-31T07:27:39;19.95;;;7.32;;
24681;SDS011;12802;53.390;-2.328;2023-07-31T07:30:05;18.70;;;6.88;;
24681;SDS011;12802;53.390;-2.328;2023-07-31T07:32:32;18.52;;;7.25;;
24681;SDS011;12802;53.390;-2.328;2023-07-31T07:34:58;14.93;;;6.63;;
24681;SDS011;12802;53.390;-2.328;2023-07-31T07:37:24;15.27;;;6.40;;
24681;SDS011;12802;53.390;-2.328;2023-07-31T07:39:50;23.98;;;6.45;;
24681;SDS011;12802;53.390;-2.328;2023-07-31T07:42:16;17.58;;;6.82;;
24681;SDS011;12802;53.390;-2.328;2023-07-31T07:44:42;18.50;;;5.72;;
24681;SDS011;12802;53.390;-2.328;2023-07-31T07:47:08;16.00;;;5.95;;
24681;SDS011;12802;53.390;-2.328;2023-07-31T07:49:34;15.13;;;6.03;;
24681;SDS011;12802;53.390;-2.328;2023-07-31T07:52:01;24.00;;;5.68;;
24681;SDS011;12802;53.390;-2.328;2023-07-31T07:54:27;13.10;;;6.43;;
24681;SDS011;12802;53.390;-2.328;2023-07-31T07:56:53;16.75;;;5.90;;
24681;SDS011;12802;53.390;-2.328;2023-07-31T07:59:20;12.45;;;5.57;;
24681;SDS011;12802;53.390;-2.328;2023-07-31T08:01:46;13.95;;;6.05;;
24681;SDS011;12802;53.390;-2.328;2023-07-31T08:04:12;18.85;;;6.65;;
24681;SDS011;12802;53.390;-2.328;2023-07-31T08:06:38;16.70;;;6.47;;
24681;SDS011;12802;53.390;-2.328;2023-07-31T08:09:05;18.20;;;6.50;;
24681;SDS011;12802;53.390;-2.328;2023-07-31T08:11:34;20.95;;;7.35;;
24681;SDS011;12802;53.390;-2.328;2023-07-31T08:14:00;19.20;;;7.32;;
24681;SDS011;12802;53.390;-2.328;2023-07-31T08:16:26;20.90;;;6.95;;
24681;SDS011;12802;53.390;-2.328;2023-07-31T08:18:52;15.40;;;6.90;;
24681;SDS011;12802;53.390;-2.328;2023-07-31T08:21:18;16.75;;;6.60;;
24681;SDS011;12802;53.390;-2.328;2023-07-31T08:23:45;15.75;;;6.38;;
24681;SDS011;12802;53.390;-2.328;2023-07-31T08:26:14;17.83;;;6.95;;
24681;SDS011;12802;53.390;-2.328;2023-07-31T08:28:41;14.90;;;5.90;;
24681;SDS011;12802;53.390;-2.328;2023-07-31T08:31:07;15.40;;;6.18;;
24681;SDS011;12802;53.390;-2.328;2023-07-31T08:33:33;16.38;;;6.13;;
24681;SDS011;12802;53.390;-2.328;2023-07-31T08:35:59;15.77;;;6.13;;
24681;SDS011;12802;53.390;-2.328;2023-07-31T08:38:26;17.70;;;5.55;;
24681;SDS011;12802;53.390;-2.328;2023-07-31T08:40:54;15.40;;;5.95;;
24681;SDS011;12802;53.390;-2.328;2023-07-31T08:43:20;22.42;;;6.28;;
24681;SDS011;12802;53.390;-2.328;2023-07-31T08:45:48;19.42;;;6.57;;
24681;SDS011;12802;53.390;-2.328;2023-07-31T08:48:15;15.30;;;6.13;;
24681;SDS011;12802;53.390;-2.328;2023-07-31T08:50:41;22.80;;;6.97;;
24681;SDS011;12802;53.390;-2.328;2023-07-31T08:53:07;14.10;;;6.28;;
24681;SDS011;12802;53.390;-2.328;2023-07-31T08:55:34;16.38;;;6.40;;
24681;SDS011;12802;53.390;-2.328;2023-07-31T08:58:01;14.18;;;6.05;;
24681;SDS011;12802;53.390;-2.328;2023-07-31T09:00:28;14.10;;;6.50;;
24681;SDS011;12802;53.390;-2.328;2023-07-31T09:03:02;12.82;;;6.32;;
24681;SDS011;12802;53.390;-2.328;2023-07-31T09:05:29;13.48;;;6.80;;
24681;SDS011;12802;53.390;-2.328;2023-07-31T09:07:55;24.80;;;6.88;;
24681;SDS011;12802;53.390;-2.328;2023-07-31T09:10:22;18.42;;;6.45;;
24681;SDS011;12802;53.390;-2.328;2023-07-31T09:12:51;16.15;;;6.60;;
24681;SDS011;12802;53.390;-2.328;2023-07-31T09:17:44;17.00;;;6.28;;
24681;SDS011;12802;53.390;-2.328;2023-07-31T09:20:16;14.63;;;6.15;;
24681;SDS011;12802;53.390;-2.328;2023-07-31T09:22:43;18.45;;;6.07;;
24681;SDS011;12802;53.390;-2.328;2023-07-31T09:25:22;13.20;;;5.10;;
24681;SDS011;12802;53.390;-2.328;2023-07-31T09:28:02;10.32;;;4.93;;
24681;SDS011;12802;53.390;-2.328;2023-07-31T09:30:28;15.13;;;5.38;;
24681;SDS011;12802;53.390;-2.328;2023-07-31T09:33:02;16.13;;;5.53;;
24681;SDS011;12802;53.390;-2.328;2023-07-31T09:35:29;16.50;;;5.28;;
24681;SDS011;12802;53.390;-2.328;2023-07-31T09:37:57;12.82;;;5.40;;
24681;SDS011;12802;53.390;-2.328;2023-07-31T09:40:28;13.50;;;5.53;;
24681;SDS011;12802;53.390;-2.328;2023-07-31T09:42:58;17.83;;;5.35;;
24681;SDS011;12802;53.390;-2.328;2023-07-31T09:45:24;11.50;;;5.18;;
24681;SDS011;12802;53.390;-2.328;2023-07-31T09:47:51;14.00;;;5.75;;
24681;SDS011;12802;53.390;-2.328;2023-07-31T09:50:17;12.18;;;4.75;;
24681;SDS011;12802;53.390;-2.328;2023-07-31T09:52:43;13.35;;;5.25;;
24681;SDS011;12802;53.390;-2.328;2023-07-31T09:55:10;13.63;;;5.28;;
24681;SDS011;12802;53.390;-2.328;2023-07-31T09:57:37;12.93;;;4.82;;
24681;SDS011;12802;53.390;-2.328;2023-07-31T10:00:05;12.02;;;5.22;;
24681;SDS011;12802;53.390;-2.328;2023-07-31T10:02:37;14.68;;;4.40;;
24681;SDS011;12802;53.390;-2.328;2023-07-31T10:05:04;10.00;;;4.35;;
24681;SDS011;12802;53.390;-2.328;2023-07-31T10:07:31;7.45;;;4.13;;
24681;SDS011;12802;53.390;-2.328;2023-07-31T10:09:57;12.75;;;4.82;;
24681;SDS011;12802;53.390;-2.328;2023-07-31T10:12:25;10.43;;;4.40;;
24681;SDS011;12802;53.390;-2.328;2023-07-31T10:14:56;16.05;;;4.13;;
24681;SDS011;12802;53.390;-2.328;2023-07-31T10:17:23;11.80;;;4.80;;
24681;SDS011;12802;53.390;-2.328;2023-07-31T10:19:49;13.13;;;4.20;;
24681;SDS011;12802;53.390;-2.328;2023-07-31T10:22:16;15.43;;;4.30;;
24681;SDS011;12802;53.390;-2.328;2023-07-31T10:24:43;9.88;;;4.50;;
24681;SDS011;12802;53.390;-2.328;2023-07-31T10:27:10;11.40;;;3.75;;
24681;SDS011;12802;53.390;-2.328;2023-07-31T10:29:37;9.18;;;3.78;;
24681;SDS011;12802;53.390;-2.328;2023-07-31T10:32:04;7.07;;;3.50;;
24681;SDS011;12802;53.390;-2.328;2023-07-31T10:34:35;9.35;;;3.95;;
24681;SDS011;12802;53.390;-2.328;2023-07-31T10:37:22;9.77;;;3.50;;
24681;SDS011;12802;53.390;-2.328;2023-07-31T10:42:30;8.88;;;3.20;;
24681;SDS011;12802;53.390;-2.328;2023-07-31T10:45:39;9.68;;;3.30;;
24681;SDS011;12802;53.390;-2.328;2023-07-31T10:47:46;11.27;;;2.95;;
24681;SDS011;12802;53.390;-2.328;2023-07-31T10:50:13;12.95;;;3.00;;
24681;SDS011;12802;53.390;-2.328;2023-07-31T10:52:39;6.18;;;2.67;;
24681;SDS011;12802;53.390;-2.328;2023-07-31T10:57:44;8.38;;;2.97;;
24681;SDS011;12802;53.390;-2.328;2023-07-31T11:00:20;7.32;;;2.97;;
24681;SDS011;12802;53.390;-2.328;2023-07-31T11:02:56;9.40;;;3.00;;
24681;SDS011;12802;53.390;-2.328;2023-07-31T11:05:40;7.95;;;3.30;;
24681;SDS011;12802;53.390;-2.328;2023-07-31T11:08:13;5.45;;;2.90;;
24681;SDS011;12802;53.390;-2.328;2023-07-31T11:10:39;7.78;;;2.53;;
24681;SDS011;12802;53.390;-2.328;2023-07-31T11:13:06;6.55;;;2.95;;
24681;SDS011;12802;53.390;-2.328;2023-07-31T11:15:32;6.60;;;3.33;;
24681;SDS011;12802;53.390;-2.328;2023-07-31T11:17:59;8.82;;;3.30;;
24681;SDS011;12802;53.390;-2.328;2023-07-31T11:20:29;7.63;;;2.83;;
24681;SDS011;12802;53.390;-2.328;2023-07-31T11:22:58;10.02;;;3.17;;
24681;SDS011;12802;53.390;-2.328;2023-07-31T11:25:24;7.00;;;3.20;;
24681;SDS011;12802;53.390;-2.328;2023-07-31T11:27:50;12.50;;;3.08;;
24681;SDS011;12802;53.390;-2.328;2023-07-31T11:30:19;6.88;;;3.00;;
24681;SDS011;12802;53.390;-2.328;2023-07-31T11:32:45;7.75;;;2.65;;
24681;SDS011;12802;53.390;-2.328;2023-07-31T11:35:14;8.63;;;3.08;;
24681;SDS011;12802;53.390;-2.328;2023-07-31T11:37:41;14.10;;;3.53;;
24681;SDS011;12802;53.390;-2.328;2023-07-31T11:40:08;9.95;;;3.65;;
24681;SDS011;12802;53.390;-2.328;2023-07-31T11:42:37;9.38;;;3.47;;
24681;SDS011;12802;53.390;-2.328;2023-07-31T11:45:12;10.35;;;4.07;;
24681;SDS011;12802;53.390;-2.328;2023-07-31T11:47:38;13.10;;;4.15;;
24681;SDS011;12802;53.390;-2.328;2023-07-31T11:50:05;9.65;;;4.18;;
24681;SDS011;12802;53.390;-2.328;2023-07-31T11:52:32;11.80;;;4.50;;
24681;SDS011;12802;53.390;-2.328;2023-07-31T11:54:59;13.63;;;4.55;;
24681;SDS011;12802;53.390;-2.328;2023-07-31T11:57:26;12.48;;;4.13;;
24681;SDS011;12802;53.390;-2.328;2023-07-31T11:59:53;12.57;;;4.40;;
24681;SDS011;12802;53.390;-2.328;2023-07-31T12:02:19;12.90;;;5.05;;
24681;SDS011;12802;53.390;-2.328;2023-07-31T12:04:46;14.10;;;4.25;;
24681;SDS011;12802;53.390;-2.328;2023-07-31T12:07:13;11.77;;;4.72;;
24681;SDS011;12802;53.390;-2.328;2023-07-31T12:09:50;12.88;;;4.60;;
24681;SDS011;12802;53.390;-2.328;2023-07-31T12:12:23;13.85;;;4.40;;
24681;SDS011;12802;53.390;-2.328;2023-07-31T12:14:49;17.35;;;5.22;;
24681;SDS011;12802;53.390;-2.328;2023-07-31T12:17:17;13.02;;;4.68;;
24681;SDS011;12802;53.390;-2.328;2023-07-31T12:19:43;13.30;;;4.55;;
24681;SDS011;12802;53.390;-2.328;2023-07-31T12:22:15;13.77;;;5.68;;
24681;SDS011;12802;53.390;-2.328;2023-07-31T12:24:42;16.30;;;5.13;;
24681;SDS011;12802;53.390;-2.328;2023-07-31T12:27:11;10.68;;;4.82;;
24681;SDS011;12802;53.390;-2.328;2023-07-31T12:29:38;11.15;;;4.70;;
24681;SDS011;12802;53.390;-2.328;2023-07-31T12:32:26;15.15;;;5.75;;
24681;SDS011;12802;53.390;-2.328;2023-07-31T12:34:53;17.33;;;6.20;;
24681;SDS011;12802;53.390;-2.328;2023-07-31T12:37:23;11.05;;;6.13;;
24681;SDS011;12802;53.390;-2.328;2023-07-31T12:39:49;15.25;;;6.45;;
24681;SDS011;12802;53.390;-2.328;2023-07-31T12:42:17;15.20;;;6.18;;
24681;SDS011;12802;53.390;-2.328;2023-07-31T12:44:43;14.88;;;6.93;;
24681;SDS011;12802;53.390;-2.328;2023-07-31T12:47:09;15.85;;;6.97;;
24681;SDS011;12802;53.390;-2.328;2023-07-31T12:49:35;18.55;;;7.53;;
24681;SDS011;12802;53.390;-2.328;2023-07-31T12:52:01;14.63;;;6.80;;
24681;SDS011;12802;53.390;-2.328;2023-07-31T12:54:27;13.57;;;6.65;;
24681;SDS011;12802;53.390;-2.328;2023-07-31T12:56:54;19.88;;;6.43;;
24681;SDS011;12802;53.390;-2.328;2023-07-31T12:59:20;17.80;;;6.50;;
24681;SDS011;12802;53.390;-2.328;2023-07-31T13:01:46;17.52;;;5.88;;
24681;SDS011;12802;53.390;-2.328;2023-07-31T13:04:12;14.15;;;5.90;;
24681;SDS011;12802;53.390;-2.328;2023-07-31T13:06:39;17.52;;;6.47;;
24681;SDS011;12802;53.390;-2.328;2023-07-31T13:09:05;18.75;;;6.65;;
24681;SDS011;12802;53.390;-2.328;2023-07-31T13:11:31;18.33;;;6.65;;
24681;SDS011;12802;53.390;-2.328;2023-07-31T13:13:57;14.82;;;7.47;;
24681;SDS011;12802;53.390;-2.328;2023-07-31T13:16:23;15.70;;;6.80;;
24681;SDS011;12802;53.390;-2.328;2023-07-31T13:18:50;25.20;;;7.38;;
24681;SDS011;12802;53.390;-2.328;2023-07-31T13:21:16;15.55;;;7.10;;
24681;SDS011;12802;53.390;-2.328;2023-07-31T13:23:42;17.80;;;7.07;;
24681;SDS011;12802;53.390;-2.328;2023-07-31T13:26:09;20.60;;;7.38;;
24681;SDS011;12802;53.390;-2.328;2023-07-31T13:28:35;17.30;;;6.47;;
24681;SDS011;12802;53.390;-2.328;2023-07-31T13:31:01;21.08;;;7.43;;
24681;SDS011;12802;53.390;-2.328;2023-07-31T13:33:27;17.13;;;7.30;;
24681;SDS011;12802;53.390;-2.328;2023-07-31T13:35:53;18.80;;;7.07;;
24681;SDS011;12802;53.390;-2.328;2023-07-31T13:38:19;29.52;;;8.73;;
24681;SDS011;12802;53.390;-2.328;2023-07-31T13:40:45;19.65;;;7.85;;
24681;SDS011;12802;53.390;-2.328;2023-07-31T13:43:11;24.45;;;7.90;;
24681;SDS011;12802;53.390;-2.328;2023-07-31T13:45:37;25.15;;;7.53;;
24681;SDS011;12802;53.390;-2.328;2023-07-31T13:48:03;19.95;;;7.22;;
24681;SDS011;12802;53.390;-2.328;2023-07-31T13:50:29;23.40;;;7.63;;
24681;SDS011;12802;53.390;-2.328;2023-07-31T13:52:56;20.45;;;7.55;;
24681;SDS011;12802;53.390;-2.328;2023-07-31T13:55:22;14.73;;;6.65;;
24681;SDS011;12802;53.390;-2.328;2023-07-31T13:57:48;21.13;;;7.88;;
24681;SDS011;12802;53.390;-2.328;2023-07-31T14:00:14;25.42;;;8.27;;
24681;SDS011;12802;53.390;-2.328;2023-07-31T14:02:40;23.30;;;8.20;;
24681;SDS011;12802;53.390;-2.328;2023-07-31T14:05:06;19.13;;;7.20;;
24681;SDS011;12802;53.390;-2.328;2023-07-31T14:07:34;23.73;;;7.70;;
24681;SDS011;12802;53.390;-2.328;2023-07-31T14:10:01;18.98;;;7.60;;
24681;SDS011;12802;53.390;-2.328;2023-07-31T14:12:29;26.10;;;7.90;;
24681;SDS011;12802;53.390;-2.328;2023-07-31T14:14:55;23.85;;;7.78;;
24681;SDS011;12802;53.390;-2.328;2023-07-31T14:17:21;19.65;;;7.28;;
24681;SDS011;12802;53.390;-2.328;2023-07-31T14:19:48;20.00;;;7.20;;
24681;SDS011;12802;53.390;-2.328;2023-07-31T14:22:14;18.70;;;6.55;;
24681;SDS011;12802;53.390;-2.328;2023-07-31T14:24:40;24.98;;;6.47;;
24681;SDS011;12802;53.390;-2.328;2023-07-31T14:27:06;10.65;;;3.67;;
24681;SDS011;12802;53.390;-2.328;2023-07-31T14:29:33;8.32;;;2.90;;
24681;SDS011;12802;53.390;-2.328;2023-07-31T14:31:59;7.90;;;2.20;;
24681;SDS011;12802;53.390;-2.328;2023-07-31T14:34:25;5.60;;;1.67;;
24681;SDS011;12802;53.390;-2.328;2023-07-31T14:36:51;6.15;;;2.00;;
24681;SDS011;12802;53.390;-2.328;2023-07-31T14:39:17;5.57;;;1.70;;
24681;SDS011;12802;53.390;-2.328;2023-07-31T14:41:43;6.38;;;1.95;;